메인 페이지
METAR-TAF:

METAR-TAF

공항 :

팔마데마요르카, 스페인

위도: 39-33N, 경도: 002-44E, 고도: 4m

현재 날씨관측

예보는 20분 전, 05:30시(UTC)에 발표되었습니다.
무풍
온도 9°C
습도 93%
기압 1012 hPa
시정 10km 이상
고도 3500ft 상공 구름 조금
고도 4500ft 상공 구름 보통

METAR: LEPA 200530Z 00000KT 9999 FEW035 SCT045 09/08 Q1012 NOSIG

시각: 06:50 (05:50 UTC)

예보

예보는 50분 전, 05:00시(UTC)에 발표되었습니다.
예보 대상 시간: 20일 06시부터 21일 06시까지 (UTC)
여러 방향의 바람 3kt
시정 10km 이상
고도 2500ft 상공 구름 보통
일시적
20일 06시부터 20일 08시까지 (UTC)
고도 1500ft 상공 구름 많음
고도 2500ft 상공 구름 조금, 타워링 적운.
확률 30% :
일시적
20일 06시부터 20일 07시까지 (UTC)
시정: 3000m
박무
일시적
20일 06시부터 20일 08시까지 (UTC)
서북서8kt
전환 중
20일 14시부터 20일 16시까지 (UTC)
서남서8kt
전환 중
20일 20시부터 20일 22시까지 (UTC)
여러 방향의 바람 5kt

TAF: LEPA 200500Z 2006/2106 VRB03KT 9999 SCT025 TX16/2012Z TN05/2006Z TEMPO 2006/2008 BKN015 FEW025TCU PROB30 TEMPO 2006/2007 3000 BR TEMPO 2006/2008 30008KT BECMG 2014/2016 24008KT BECMG 2020/2022 VRB05KT

4,000개 이상의 공항 관측 자료 및 예보 (METAR 및 TAF 보고).

지도상에서 검색 가능한 기상관측소가 노란 점과 빨간 점으로 표시되어 있습니다.

기상관측소 명을 보려면 표시 위로 마우스를 이동하세요.

날씨 관측과 예보를 보려면 클릭하세요.

지도 변경 : 확대하려면 엑스 표시가 있는 녹색 버튼, 축소하려면 빼기 표시가 있는 녹색 버튼, 다음 페이지의 지도를 보려면 녹색 화살표를 클릭하세요.


METAR-TAF: